sensor_id;sensor_type;location;lat;lon;timestamp;pressure;altitude;pressure_sealevel;temperature;humidity
7748;BME280;3918;42.564;23.164;2022-09-12T05:01:06;-11650.84;;;-142.29;100.00
7748;BME280;3918;42.564;23.164;2022-09-12T05:03:33;-11650.84;;;-142.29;100.00
7748;BME280;3918;42.564;23.164;2022-09-12T05:06:04;-11650.84;;;-142.29;100.00
7748;BME280;3918;42.564;23.164;2022-09-12T05:08:32;-11650.84;;;-142.29;100.00
7748;BME280;3918;42.564;23.164;2022-09-12T05:11:01;-11650.84;;;-142.29;100.00
7748;BME280;3918;42.564;23.164;2022-09-12T05:13:29;-11650.84;;;-142.29;100.00
7748;BME280;3918;42.564;23.164;2022-09-12T05:15:57;-11650.84;;;-142.29;100.00
7748;BME280;3918;42.564;23.164;2022-09-12T05:18:26;-11650.84;;;-142.29;100.00
7748;BME280;3918;42.564;23.164;2022-09-12T05:20:53;-11650.84;;;-142.29;100.00
7748;BME280;3918;42.564;23.164;2022-09-12T05:23:20;-11650.84;;;-142.29;100.00
7748;BME280;3918;42.564;23.164;2022-09-12T05:25:49;-11650.84;;;-142.29;100.00
7748;BME280;3918;42.564;23.164;2022-09-12T05:28:17;-11650.84;;;-142.29;100.00
7748;BME280;3918;42.564;23.164;2022-09-12T05:30:44;-11650.84;;;-142.29;100.00
7748;BME280;3918;42.564;23.164;2022-09-12T05:33:11;-11650.84;;;-142.29;100.00
7748;BME280;3918;42.564;23.164;2022-09-12T05:35:39;-11650.84;;;-142.29;100.00
7748;BME280;3918;42.564;23.164;2022-09-12T05:38:06;-11650.84;;;-142.29;100.00
7748;BME280;3918;42.564;23.164;2022-09-12T05:40:33;-11650.84;;;-142.29;100.00
7748;BME280;3918;42.564;23.164;2022-09-12T05:43:00;-11650.84;;;-142.29;100.00
7748;BME280;3918;42.564;23.164;2022-09-12T05:45:27;-11650.84;;;-142.29;100.00
7748;BME280;3918;42.564;23.164;2022-09-12T05:47:54;-11650.84;;;-142.29;100.00
7748;BME280;3918;42.564;23.164;2022-09-12T05:50:21;-11650.84;;;-142.29;100.00
7748;BME280;3918;42.564;23.164;2022-09-12T05:52:49;-11650.84;;;-142.29;100.00
7748;BME280;3918;42.564;23.164;2022-09-12T05:55:16;-11650.84;;;-142.29;100.00
7748;BME280;3918;42.564;23.164;2022-09-12T05:57:43;-11650.84;;;-142.29;100.00
7748;BME280;3918;42.564;23.164;2022-09-12T06:00:12;-11650.84;;;-142.29;100.00
7748;BME280;3918;42.564;23.164;2022-09-12T06:02:40;-11650.84;;;-142.29;100.00
7748;BME280;3918;42.564;23.164;2022-09-12T06:05:07;-11650.84;;;-142.29;100.00
7748;BME280;3918;42.564;23.164;2022-09-12T06:07:33;-11650.84;;;-142.29;100.00
7748;BME280;3918;42.564;23.164;2022-09-12T06:10:03;-11650.84;;;-142.29;100.00
7748;BME280;3918;42.564;23.164;2022-09-12T06:12:29;-11650.84;;;-142.29;90.51
7748;BME280;3918;42.564;23.164;2022-09-12T06:14:56;-11650.84;;;-142.29;87.48
7748;BME280;3918;42.564;23.164;2022-09-12T06:17:23;-11650.84;;;-142.29;82.27
7748;BME280;3918;42.564;23.164;2022-09-12T06:19:50;-11650.84;;;-142.29;77.17
7748;BME280;3918;42.564;23.164;2022-09-12T06:22:16;-11650.84;;;-142.29;69.37
7748;BME280;3918;42.564;23.164;2022-09-12T06:24:43;-11650.84;;;-142.29;63.18
7748;BME280;3918;42.564;23.164;2022-09-12T06:27:11;-11650.84;;;-142.29;62.31
7748;BME280;3918;42.564;23.164;2022-09-12T06:29:38;-11650.84;;;-142.29;63.06
7748;BME280;3918;42.564;23.164;2022-09-12T06:32:05;-11650.84;;;-142.29;67.09
7748;BME280;3918;42.564;23.164;2022-09-12T06:34:32;-11650.84;;;-142.29;70.58
7748;BME280;3918;42.564;23.164;2022-09-12T06:37:00;-11650.84;;;-142.29;77.69
7748;BME280;3918;42.564;23.164;2022-09-12T06:39:28;-11650.84;;;-142.29;85.98
7748;BME280;3918;42.564;23.164;2022-09-12T06:41:55;-11650.84;;;-142.29;89.47
7748;BME280;3918;42.564;23.164;2022-09-12T06:44:25;-11650.84;;;-142.29;93.99
7748;BME280;3918;42.564;23.164;2022-09-12T06:46:51;-11650.84;;;-142.29;90.98
7748;BME280;3918;42.564;23.164;2022-09-12T06:49:18;-11650.84;;;-142.29;82.69
7748;BME280;3918;42.564;23.164;2022-09-12T06:51:45;-11650.84;;;-142.29;81.56
7748;BME280;3918;42.564;23.164;2022-09-12T06:54:13;-11650.84;;;-142.29;78.15
7748;BME280;3918;42.564;23.164;2022-09-12T06:56:40;-11650.84;;;-142.29;78.08
7748;BME280;3918;42.564;23.164;2022-09-12T06:59:06;-11650.84;;;-142.29;80.79
7748;BME280;3918;42.564;23.164;2022-09-12T07:01:35;-11650.84;;;-142.29;88.12
7748;BME280;3918;42.564;23.164;2022-09-12T07:04:03;-11650.84;;;-142.29;97.51
7748;BME280;3918;42.564;23.164;2022-09-12T07:06:34;-11650.84;;;-142.29;100.00
7748;BME280;3918;42.564;23.164;2022-09-12T07:09:03;-11650.84;;;-142.29;100.00
7748;BME280;3918;42.564;23.164;2022-09-12T07:11:32;-11650.84;;;-142.29;100.00
7748;BME280;3918;42.564;23.164;2022-09-12T07:14:00;-11650.84;;;-142.29;100.00
7748;BME280;3918;42.564;23.164;2022-09-12T07:16:27;-11650.84;;;-142.29;100.00
7748;BME280;3918;42.564;23.164;2022-09-12T07:18:57;-11650.84;;;-142.29;100.00
7748;BME280;3918;42.564;23.164;2022-09-12T07:21:24;-11650.84;;;-142.29;100.00
7748;BME280;3918;42.564;23.164;2022-09-12T07:23:51;-11650.84;;;-142.29;100.00
7748;BME280;3918;42.564;23.164;2022-09-12T07:26:19;-11650.84;;;-142.29;100.00
7748;BME280;3918;42.564;23.164;2022-09-12T07:28:50;-11650.84;;;-142.29;100.00
7748;BME280;3918;42.564;23.164;2022-09-12T07:31:19;-11650.84;;;-142.29;100.00
7748;BME280;3918;42.564;23.164;2022-09-12T07:33:46;-11650.84;;;-142.29;100.00
7748;BME280;3918;42.564;23.164;2022-09-12T07:36:17;-11650.84;;;-142.29;100.00
7748;BME280;3918;42.564;23.164;2022-09-12T07:38:45;-11650.84;;;-142.29;100.00
7748;BME280;3918;42.564;23.164;2022-09-12T07:41:13;-11650.84;;;-142.29;100.00
7748;BME280;3918;42.564;23.164;2022-09-12T07:43:40;-11650.84;;;-142.29;100.00
7748;BME280;3918;42.564;23.164;2022-09-12T07:46:07;-11650.84;;;-142.29;100.00
7748;BME280;3918;42.564;23.164;2022-09-12T07:48:34;-11650.84;;;-142.29;100.00
7748;BME280;3918;42.564;23.164;2022-09-12T07:51:03;-11650.84;;;-142.29;100.00
7748;BME280;3918;42.564;23.164;2022-09-12T07:53:33;-11650.84;;;-142.29;100.00
7748;BME280;3918;42.564;23.164;2022-09-12T07:56:00;-11650.84;;;-142.29;100.00
7748;BME280;3918;42.564;23.164;2022-09-12T07:58:27;-11650.84;;;-142.29;100.00
7748;BME280;3918;42.564;23.164;2022-09-12T08:01:01;-11650.84;;;-142.29;100.00
7748;BME280;3918;42.564;23.164;2022-09-12T08:03:28;-11650.84;;;-142.29;100.00
7748;BME280;3918;42.564;23.164;2022-09-12T08:06:01;-11650.84;;;-142.29;100.00
7748;BME280;3918;42.564;23.164;2022-09-12T08:08:28;-11650.84;;;-142.29;100.00
7748;BME280;3918;42.564;23.164;2022-09-12T08:10:57;-11650.84;;;-142.29;100.00
7748;BME280;3918;42.564;23.164;2022-09-12T08:13:24;-11650.84;;;-142.29;100.00
7748;BME280;3918;42.564;23.164;2022-09-12T08:15:51;-11650.84;;;-142.29;100.00
7748;BME280;3918;42.564;23.164;2022-09-12T08:18:18;-11650.84;;;-142.29;100.00
7748;BME280;3918;42.564;23.164;2022-09-12T08:20:44;-11650.84;;;-142.29;100.00
7748;BME280;3918;42.564;23.164;2022-09-12T08:23:11;-11650.84;;;-142.29;100.00
7748;BME280;3918;42.564;23.164;2022-09-12T08:25:38;-11650.84;;;-142.29;100.00
7748;BME280;3918;42.564;23.164;2022-09-12T08:28:06;-11650.84;;;-142.29;100.00
7748;BME280;3918;42.564;23.164;2022-09-12T08:30:32;-11650.84;;;-142.29;100.00
7748;BME280;3918;42.564;23.164;2022-09-12T08:32:59;-11650.84;;;-142.29;100.00
7748;BME280;3918;42.564;23.164;2022-09-12T08:35:26;-11650.84;;;-142.29;100.00
7748;BME280;3918;42.564;23.164;2022-09-12T08:37:53;-11650.84;;;-142.29;100.00
7748;BME280;3918;42.564;23.164;2022-09-12T08:40:19;-11650.84;;;-142.29;100.00
7748;BME280;3918;42.564;23.164;2022-09-12T08:42:53;-11650.84;;;-142.29;100.00
7748;BME280;3918;42.564;23.164;2022-09-12T08:45:31;-11650.84;;;-142.29;100.00
7748;BME280;3918;42.564;23.164;2022-09-12T08:48:02;-11650.84;;;-142.29;100.00
7748;BME280;3918;42.564;23.164;2022-09-12T08:50:30;-11650.84;;;-142.29;100.00
7748;BME280;3918;42.564;23.164;2022-09-12T08:52:59;-11650.84;;;-142.29;100.00
7748;BME280;3918;42.564;23.164;2022-09-12T08:55:33;-11650.84;;;-142.29;100.00
7748;BME280;3918;42.564;23.164;2022-09-12T08:58:06;-11650.84;;;-142.29;100.00
7748;BME280;3918;42.564;23.164;2022-09-12T09:00:45;-11650.84;;;-142.29;100.00
7748;BME280;3918;42.564;23.164;2022-09-12T09:03:29;-11650.84;;;-142.29;100.00
7748;BME280;3918;42.564;23.164;2022-09-12T09:06:06;-11650.84;;;-142.29;100.00
7748;BME280;3918;42.564;23.164;2022-09-12T09:08:45;-11650.84;;;-142.29;100.00
7748;BME280;3918;42.564;23.164;2022-09-12T09:11:21;-11650.84;;;-142.29;100.00
7748;BME280;3918;42.564;23.164;2022-09-12T09:14:02;-11650.84;;;-142.29;100.00
7748;BME280;3918;42.564;23.164;2022-09-12T09:16:50;-11650.84;;;-142.29;100.00
7748;BME280;3918;42.564;23.164;2022-09-12T09:19:21;-11650.84;;;-142.29;100.00
7748;BME280;3918;42.564;23.164;2022-09-12T09:21:53;-11650.84;;;-142.29;100.00
7748;BME280;3918;42.564;23.164;2022-09-12T09:24:25;-11650.84;;;-142.29;100.00
7748;BME280;3918;42.564;23.164;2022-09-12T09:27:01;-11650.84;;;-142.29;100.00
7748;BME280;3918;42.564;23.164;2022-09-12T09:29:34;-11650.84;;;-142.29;100.00
7748;BME280;3918;42.564;23.164;2022-09-12T09:32:13;-11650.84;;;-142.29;100.00
7748;BME280;3918;42.564;23.164;2022-09-12T09:34:42;-11650.84;;;-142.29;100.00
7748;BME280;3918;42.564;23.164;2022-09-12T09:37:17;-11650.84;;;-142.29;97.81
7748;BME280;3918;42.564;23.164;2022-09-12T09:39:53;-11650.84;;;-142.29;96.54
7748;BME280;3918;42.564;23.164;2022-09-12T09:42:28;-11650.84;;;-142.29;97.96
7748;BME280;3918;42.564;23.164;2022-09-12T09:45:03;-11650.84;;;-142.29;97.55
7748;BME280;3918;42.564;23.164;2022-09-12T09:47:38;-11650.84;;;-142.29;99.80
7748;BME280;3918;42.564;23.164;2022-09-12T09:50:05;-11650.84;;;-142.29;100.00
7748;BME280;3918;42.564;23.164;2022-09-12T09:52:34;-11650.84;;;-142.29;100.00
7748;BME280;3918;42.564;23.164;2022-09-12T09:55:01;-11650.84;;;-142.29;96.86
7748;BME280;3918;42.564;23.164;2022-09-12T09:57:40;-11650.84;;;-142.29;95.60
7748;BME280;3918;42.564;23.164;2022-09-12T10:00:20;-11650.84;;;-142.29;93.95
7748;BME280;3918;42.564;23.164;2022-09-12T10:03:06;-11650.84;;;-142.29;94.27
7748;BME280;3918;42.564;23.164;2022-09-12T10:05:49;-11650.84;;;-142.29;95.27
7748;BME280;3918;42.564;23.164;2022-09-12T10:08:20;-11650.84;;;-142.29;96.71
7748;BME280;3918;42.564;23.164;2022-09-12T10:10:59;-11650.84;;;-142.29;99.94
7748;BME280;3918;42.564;23.164;2022-09-12T10:13:31;-11650.84;;;-142.29;100.00
7748;BME280;3918;42.564;23.164;2022-09-12T10:16:01;-11650.84;;;-142.29;100.00
7748;BME280;3918;42.564;23.164;2022-09-12T10:18:39;-11650.84;;;-142.29;99.07
7748;BME280;3918;42.564;23.164;2022-09-12T10:21:28;-11650.84;;;-142.29;97.30
7748;BME280;3918;42.564;23.164;2022-09-12T10:24:05;-11650.84;;;-142.29;96.30
7748;BME280;3918;42.564;23.164;2022-09-12T10:26:44;-11650.84;;;-142.29;96.82
7748;BME280;3918;42.564;23.164;2022-09-12T10:29:15;-11650.84;;;-142.29;99.46
7748;BME280;3918;42.564;23.164;2022-09-12T10:31:46;-11650.84;;;-142.29;100.00
7748;BME280;3918;42.564;23.164;2022-09-12T10:34:22;-11650.84;;;-142.29;100.00
7748;BME280;3918;42.564;23.164;2022-09-12T10:37:02;-11650.84;;;-142.29;100.00
7748;BME280;3918;42.564;23.164;2022-09-12T10:39:30;-11650.84;;;-142.29;100.00
7748;BME280;3918;42.564;23.164;2022-09-12T10:41:58;-11650.84;;;-142.29;100.00
7748;BME280;3918;42.564;23.164;2022-09-12T10:44:27;-11650.84;;;-142.29;100.00
7748;BME280;3918;42.564;23.164;2022-09-12T10:46:55;-11650.84;;;-142.29;100.00
7748;BME280;3918;42.564;23.164;2022-09-12T10:49:27;-11650.84;;;-142.29;99.04
7748;BME280;3918;42.564;23.164;2022-09-12T10:51:56;-11650.84;;;-142.29;100.00
7748;BME280;3918;42.564;23.164;2022-09-12T10:54:26;-11650.84;;;-142.29;100.00
7748;BME280;3918;42.564;23.164;2022-09-12T10:57:06;-11650.84;;;-142.29;100.00
7748;BME280;3918;42.564;23.164;2022-09-12T10:59:54;-11650.84;;;-142.29;100.00
7748;BME280;3918;42.564;23.164;2022-09-12T11:02:27;-11650.84;;;-142.29;99.09
7748;BME280;3918;42.564;23.164;2022-09-12T11:05:02;-11650.84;;;-142.29;96.28
7748;BME280;3918;42.564;23.164;2022-09-12T11:07:42;-11650.84;;;-142.29;95.58
7748;BME280;3918;42.564;23.164;2022-09-12T11:10:24;-11650.84;;;-142.29;96.22
7748;BME280;3918;42.564;23.164;2022-09-12T11:13:02;-11650.84;;;-142.29;96.98
7748;BME280;3918;42.564;23.164;2022-09-12T11:15:40;-11650.84;;;-142.29;96.82
7748;BME280;3918;42.564;23.164;2022-09-12T11:18:20;-11650.84;;;-142.29;95.85
7748;BME280;3918;42.564;23.164;2022-09-12T11:21:08;-11650.84;;;-142.29;95.74
7748;BME280;3918;42.564;23.164;2022-09-12T11:24:00;-11650.84;;;-142.29;89.85
7748;BME280;3918;42.564;23.164;2022-09-12T11:26:46;-11650.84;;;-142.29;89.45
7748;BME280;3918;42.564;23.164;2022-09-12T11:29:23;-11650.84;;;-142.29;89.63
7748;BME280;3918;42.564;23.164;2022-09-12T11:32:26;-11650.84;;;-142.29;89.42
7748;BME280;3918;42.564;23.164;2022-09-12T11:35:05;-11650.84;;;-142.29;90.68
7748;BME280;3918;42.564;23.164;2022-09-12T11:37:52;-11650.84;;;-142.29;90.03
7748;BME280;3918;42.564;23.164;2022-09-12T11:40:28;-11650.84;;;-142.29;91.04
7748;BME280;3918;42.564;23.164;2022-09-12T11:43:00;-11650.84;;;-142.29;93.03
7748;BME280;3918;42.564;23.164;2022-09-12T11:45:34;-11650.84;;;-142.29;93.05
7748;BME280;3918;42.564;23.164;2022-09-12T11:48:06;-11650.84;;;-142.29;93.57
7748;BME280;3918;42.564;23.164;2022-09-12T11:50:36;-11650.84;;;-142.29;93.45
7748;BME280;3918;42.564;23.164;2022-09-12T11:53:12;-11650.84;;;-142.29;93.78
7748;BME280;3918;42.564;23.164;2022-09-12T11:55:48;-11650.84;;;-142.29;92.48
7748;BME280;3918;42.564;23.164;2022-09-12T11:58:22;-11650.84;;;-142.29;90.88
7748;BME280;3918;42.564;23.164;2022-09-12T12:00:53;-11650.84;;;-142.29;89.32
7748;BME280;3918;42.564;23.164;2022-09-12T12:03:27;-11650.84;;;-142.29;88.44
7748;BME280;3918;42.564;23.164;2022-09-12T12:06:00;-11650.84;;;-142.29;87.52
7748;BME280;3918;42.564;23.164;2022-09-12T12:08:31;-11650.84;;;-142.29;87.19
7748;BME280;3918;42.564;23.164;2022-09-12T12:11:04;-11650.84;;;-142.29;87.03
7748;BME280;3918;42.564;23.164;2022-09-12T12:13:35;-11650.84;;;-142.29;88.05
7748;BME280;3918;42.564;23.164;2022-09-12T12:16:05;-11650.84;;;-142.29;88.23
7748;BME280;3918;42.564;23.164;2022-09-12T12:18:36;-11650.84;;;-142.29;88.95
7748;BME280;3918;42.564;23.164;2022-09-12T12:21:20;-11650.84;;;-142.29;85.96
7748;BME280;3918;42.564;23.164;2022-09-12T12:24:15;-11650.84;;;-142.29;86.76
7748;BME280;3918;42.564;23.164;2022-09-12T12:26:57;-11650.84;;;-142.29;88.71
7748;BME280;3918;42.564;23.164;2022-09-12T12:29:41;-11650.84;;;-142.29;85.31
7748;BME280;3918;42.564;23.164;2022-09-12T12:32:21;-11650.84;;;-142.29;84.97
7748;BME280;3918;42.564;23.164;2022-09-12T12:34:49;-11650.84;;;-142.29;84.59
7748;BME280;3918;42.564;23.164;2022-09-12T12:37:51;-11650.84;;;-142.29;83.83
7748;BME280;3918;42.564;23.164;2022-09-12T12:40:24;-11650.84;;;-142.29;87.82
7748;BME280;3918;42.564;23.164;2022-09-12T12:46:03;-11650.84;;;-142.29;86.98
7748;BME280;3918;42.564;23.164;2022-09-12T12:49:06;-11650.84;;;-142.29;88.86
7748;BME280;3918;42.564;23.164;2022-09-12T12:57:30;-11650.84;;;-142.29;90.01
7748;BME280;3918;42.564;23.164;2022-09-12T13:00:00;-11650.84;;;-142.29;87.81
7748;BME280;3918;42.564;23.164;2022-09-12T13:02:31;-11650.84;;;-142.29;87.68
7748;BME280;3918;42.564;23.164;2022-09-12T13:05:01;-11650.84;;;-142.29;87.47
7748;BME280;3918;42.564;23.164;2022-09-12T13:07:32;-11650.84;;;-142.29;88.61
7748;BME280;3918;42.564;23.164;2022-09-12T13:10:02;-11650.84;;;-142.29;89.66
7748;BME280;3918;42.564;23.164;2022-09-12T13:12:33;-11650.84;;;-142.29;90.21
7748;BME280;3918;42.564;23.164;2022-09-12T13:15:02;-11650.84;;;-142.29;91.67
7748;BME280;3918;42.564;23.164;2022-09-12T13:17:37;-11650.84;;;-142.29;91.41
7748;BME280;3918;42.564;23.164;2022-09-12T13:20:18;-11650.84;;;-142.29;92.11
7748;BME280;3918;42.564;23.164;2022-09-12T13:22:48;-11650.84;;;-142.29;93.48
7748;BME280;3918;42.564;23.164;2022-09-12T13:25:21;-11650.84;;;-142.29;95.04
7748;BME280;3918;42.564;23.164;2022-09-12T13:28:03;-11650.84;;;-142.29;95.04
7748;BME280;3918;42.564;23.164;2022-09-12T13:30:32;-11650.84;;;-142.29;94.47
7748;BME280;3918;42.564;23.164;2022-09-12T13:33:09;-11650.84;;;-142.29;93.96
7748;BME280;3918;42.564;23.164;2022-09-12T13:35:47;-11650.84;;;-142.29;94.79
7748;BME280;3918;42.564;23.164;2022-09-12T13:38:24;-11650.84;;;-142.29;94.51
7748;BME280;3918;42.564;23.164;2022-09-12T13:41:06;-11650.84;;;-142.29;94.16
7748;BME280;3918;42.564;23.164;2022-09-12T13:43:42;-11650.84;;;-142.29;92.61
7748;BME280;3918;42.564;23.164;2022-09-12T13:46:15;-11650.84;;;-142.29;93.26
7748;BME280;3918;42.564;23.164;2022-09-12T13:48:43;-11650.84;;;-142.29;92.60
7748;BME280;3918;42.564;23.164;2022-09-12T13:51:20;-11650.84;;;-142.29;92.11
7748;BME280;3918;42.564;23.164;2022-09-12T13:53:51;-11650.84;;;-142.29;92.43
7748;BME280;3918;42.564;23.164;2022-09-12T13:56:20;-11650.84;;;-142.29;90.53
7748;BME280;3918;42.564;23.164;2022-09-12T13:58:53;-11650.84;;;-142.29;89.71
7748;BME280;3918;42.564;23.164;2022-09-12T14:01:22;-11650.84;;;-142.29;90.87
7748;BME280;3918;42.564;23.164;2022-09-12T14:03:50;-11650.84;;;-142.29;90.53
7748;BME280;3918;42.564;23.164;2022-09-12T14:06:42;-11650.84;;;-142.29;90.01
7748;BME280;3918;42.564;23.164;2022-09-12T14:09:12;-11650.84;;;-142.29;90.53
7748;BME280;3918;42.564;23.164;2022-09-12T14:11:40;-11650.84;;;-142.29;90.15
7748;BME280;3918;42.564;23.164;2022-09-12T14:14:19;-11650.84;;;-142.29;89.01
7748;BME280;3918;42.564;23.164;2022-09-12T14:16:46;-11650.84;;;-142.29;86.76
7748;BME280;3918;42.564;23.164;2022-09-12T14:19:13;-11650.84;;;-142.29;87.94
7748;BME280;3918;42.564;23.164;2022-09-12T14:21:41;-11650.84;;;-142.29;87.98
7748;BME280;3918;42.564;23.164;2022-09-12T14:24:10;-11650.84;;;-142.29;88.14
7748;BME280;3918;42.564;23.164;2022-09-12T14:26:41;-11650.84;;;-142.29;89.10
7748;BME280;3918;42.564;23.164;2022-09-12T14:29:15;-11650.84;;;-142.29;88.29
7748;BME280;3918;42.564;23.164;2022-09-12T14:31:43;-11650.84;;;-142.29;88.92
7748;BME280;3918;42.564;23.164;2022-09-12T14:34:12;-11650.84;;;-142.29;88.78
7748;BME280;3918;42.564;23.164;2022-09-12T14:36:42;-11650.84;;;-142.29;88.73
7748;BME280;3918;42.564;23.164;2022-09-12T14:39:27;-11650.84;;;-142.29;88.68
7748;BME280;3918;42.564;23.164;2022-09-12T14:42:03;-11650.84;;;-142.29;89.00
7748;BME280;3918;42.564;23.164;2022-09-12T14:44:33;-11650.84;;;-142.29;89.99
7748;BME280;3918;42.564;23.164;2022-09-12T14:47:11;-11650.84;;;-142.29;90.38
7748;BME280;3918;42.564;23.164;2022-09-12T14:49:38;-11650.84;;;-142.29;89.55
7748;BME280;3918;42.564;23.164;2022-09-12T14:52:07;-11650.84;;;-142.29;89.85
7748;BME280;3918;42.564;23.164;2022-09-12T14:54:55;-11650.84;;;-142.29;90.74
7748;BME280;3918;42.564;23.164;2022-09-12T14:57:37;-11650.84;;;-142.29;92.08
7748;BME280;3918;42.564;23.164;2022-09-12T15:00:21;-11650.84;;;-142.29;93.76
7748;BME280;3918;42.564;23.164;2022-09-12T15:02:49;-11650.84;;;-142.29;94.57
7748;BME280;3918;42.564;23.164;2022-09-12T15:05:23;-11650.84;;;-142.29;95.10
7748;BME280;3918;42.564;23.164;2022-09-12T15:07:53;-11650.84;;;-142.29;96.89
7748;BME280;3918;42.564;23.164;2022-09-12T15:10:22;-11650.84;;;-142.29;97.83
7748;BME280;3918;42.564;23.164;2022-09-12T15:13:13;-11650.84;;;-142.29;98.29
7748;BME280;3918;42.564;23.164;2022-09-12T15:15:43;-11650.84;;;-142.29;98.87
7748;BME280;3918;42.564;23.164;2022-09-12T15:18:11;-11650.84;;;-142.29;100.00
7748;BME280;3918;42.564;23.164;2022-09-12T15:20:39;-11650.84;;;-142.29;100.00
7748;BME280;3918;42.564;23.164;2022-09-12T15:23:14;-11650.84;;;-142.29;100.00
7748;BME280;3918;42.564;23.164;2022-09-12T15:25:41;-11650.84;;;-142.29;100.00
7748;BME280;3918;42.564;23.164;2022-09-12T15:28:15;-11650.84;;;-142.29;100.00
7748;BME280;3918;42.564;23.164;2022-09-12T15:30:45;-11650.84;;;-142.29;100.00
7748;BME280;3918;42.564;23.164;2022-09-12T15:33:12;-11650.84;;;-142.29;100.00
7748;BME280;3918;42.564;23.164;2022-09-12T15:35:39;-11650.84;;;-142.29;100.00
7748;BME280;3918;42.564;23.164;2022-09-12T15:38:05;-11650.84;;;-142.29;100.00
7748;BME280;3918;42.564;23.164;2022-09-12T15:40:32;-11650.84;;;-142.29;100.00
7748;BME280;3918;42.564;23.164;2022-09-12T15:42:59;-11650.84;;;-142.29;100.00
7748;BME280;3918;42.564;23.164;2022-09-12T15:45:29;-11650.84;;;-142.29;100.00
7748;BME280;3918;42.564;23.164;2022-09-12T15:47:58;-11650.84;;;-142.29;100.00
7748;BME280;3918;42.564;23.164;2022-09-12T15:50:25;-11650.84;;;-142.29;100.00
7748;BME280;3918;42.564;23.164;2022-09-12T15:52:52;-11650.84;;;-142.29;100.00
7748;BME280;3918;42.564;23.164;2022-09-12T15:55:21;-11650.84;;;-142.29;100.00
7748;BME280;3918;42.564;23.164;2022-09-12T15:57:49;-11650.84;;;-142.29;100.00
7748;BME280;3918;42.564;23.164;2022-09-12T16:00:17;-11650.84;;;-142.29;100.00
7748;BME280;3918;42.564;23.164;2022-09-12T16:02:46;-11650.84;;;-142.29;100.00
7748;BME280;3918;42.564;23.164;2022-09-12T16:05:16;-11650.84;;;-142.29;100.00
7748;BME280;3918;42.564;23.164;2022-09-12T16:07:43;-11650.84;;;-142.29;100.00
7748;BME280;3918;42.564;23.164;2022-09-12T16:10:13;-11650.84;;;-142.29;100.00
7748;BME280;3918;42.564;23.164;2022-09-12T16:12:41;-11650.84;;;-142.29;100.00
7748;BME280;3918;42.564;23.164;2022-09-12T16:15:12;-11650.84;;;-142.29;100.00
7748;BME280;3918;42.564;23.164;2022-09-12T16:17:39;-11650.84;;;-142.29;100.00
7748;BME280;3918;42.564;23.164;2022-09-12T16:20:07;-11650.84;;;-142.29;100.00
7748;BME280;3918;42.564;23.164;2022-09-12T16:22:35;-11650.84;;;-142.29;100.00
7748;BME280;3918;42.564;23.164;2022-09-12T16:25:03;-11650.84;;;-142.29;100.00
7748;BME280;3918;42.564;23.164;2022-09-12T16:27:30;-11650.84;;;-142.29;100.00
7748;BME280;3918;42.564;23.164;2022-09-12T16:29:57;-11650.84;;;-142.29;100.00
7748;BME280;3918;42.564;23.164;2022-09-12T16:32:24;-11650.84;;;-142.29;100.00
7748;BME280;3918;42.564;23.164;2022-09-12T16:34:51;-11650.84;;;-142.29;100.00
7748;BME280;3918;42.564;23.164;2022-09-12T16:37:18;-11650.84;;;-142.29;100.00
7748;BME280;3918;42.564;23.164;2022-09-12T16:39:46;-11650.84;;;-142.29;100.00
7748;BME280;3918;42.564;23.164;2022-09-12T16:42:14;-11650.84;;;-142.29;100.00
7748;BME280;3918;42.564;23.164;2022-09-12T16:44:42;-11650.84;;;-142.29;100.00
7748;BME280;3918;42.564;23.164;2022-09-12T16:47:09;-11650.84;;;-142.29;100.00
7748;BME280;3918;42.564;23.164;2022-09-12T16:49:36;-11650.84;;;-142.29;100.00
7748;BME280;3918;42.564;23.164;2022-09-12T16:52:02;-11650.84;;;-142.29;100.00
7748;BME280;3918;42.564;23.164;2022-09-12T16:54:29;-11650.84;;;-142.29;100.00
7748;BME280;3918;42.564;23.164;2022-09-12T16:56:57;-11650.84;;;-142.29;100.00
7748;BME280;3918;42.564;23.164;2022-09-12T16:59:24;-11650.84;;;-142.29;100.00
7748;BME280;3918;42.564;23.164;2022-09-12T17:01:51;-11650.84;;;-142.29;100.00
7748;BME280;3918;42.564;23.164;2022-09-12T17:04:18;-11650.84;;;-142.29;100.00
7748;BME280;3918;42.564;23.164;2022-09-12T17:06:45;-11650.84;;;-142.29;100.00
7748;BME280;3918;42.564;23.164;2022-09-12T17:09:12;-11650.84;;;-142.29;100.00
7748;BME280;3918;42.564;23.164;2022-09-12T17:11:43;-11650.84;;;-142.29;100.00
7748;BME280;3918;42.564;23.164;2022-09-12T17:14:12;-11650.84;;;-142.29;100.00
7748;BME280;3918;42.564;23.164;2022-09-12T17:16:41;-11650.84;;;-142.29;100.00
7748;BME280;3918;42.564;23.164;2022-09-12T17:19:11;-11650.84;;;-142.29;100.00
7748;BME280;3918;42.564;23.164;2022-09-12T17:21:39;-11650.84;;;-142.29;100.00
7748;BME280;3918;42.564;23.164;2022-09-12T17:24:05;-11650.84;;;-142.29;100.00
7748;BME280;3918;42.564;23.164;2022-09-12T17:26:32;-11650.84;;;-142.29;100.00
7748;BME280;3918;42.564;23.164;2022-09-12T17:28:59;-11650.84;;;-142.29;100.00
7748;BME280;3918;42.564;23.164;2022-09-12T17:31:27;-11650.84;;;-142.29;100.00
7748;BME280;3918;42.564;23.164;2022-09-12T17:33:55;-11650.84;;;-142.29;100.00
7748;BME280;3918;42.564;23.164;2022-09-12T17:36:22;-11650.84;;;-142.29;100.00
7748;BME280;3918;42.564;23.164;2022-09-12T17:38:49;-11650.84;;;-142.29;100.00
7748;BME280;3918;42.564;23.164;2022-09-12T17:41:20;-11650.84;;;-142.29;100.00
7748;BME280;3918;42.564;23.164;2022-09-12T17:43:48;-11650.84;;;-142.29;100.00
7748;BME280;3918;42.564;23.164;2022-09-12T17:46:16;-11650.84;;;-142.29;100.00
7748;BME280;3918;42.564;23.164;2022-09-12T17:48:49;-11650.84;;;-142.29;100.00
7748;BME280;3918;42.564;23.164;2022-09-12T17:51:16;-11650.84;;;-142.29;100.00
7748;BME280;3918;42.564;23.164;2022-09-12T17:53:43;-11650.84;;;-142.29;100.00
7748;BME280;3918;42.564;23.164;2022-09-12T17:56:10;-11650.84;;;-142.29;100.00
7748;BME280;3918;42.564;23.164;2022-09-12T17:58:37;-11650.84;;;-142.29;100.00
7748;BME280;3918;42.564;23.164;2022-09-12T18:01:06;-11650.84;;;-142.29;100.00
7748;BME280;3918;42.564;23.164;2022-09-12T18:03:53;-11650.84;;;-142.29;100.00
7748;BME280;3918;42.564;23.164;2022-09-12T18:06:21;-11650.84;;;-142.29;100.00